Time;durP1;ratioP1;P1;durP2;ratioP2;P2;SDS_P1;SDS_P2;PMS_P1;PMS_P2;Temp;Humidity;BMP_temperature;BMP_pressure;BME280_temperature;BME280_humidity;BME280_pressure;Samples;Min_cycle;Max_cycle;Signal;HPM_P1;HPM_P2
2022/10/05 00:01:32;;;;;;;20.00;10.68;;;333.00;2329.60;;;;;;5038181;28;20025;-75
2022/10/05 00:04:20;;;;;;;19.13;10.63;;;332.90;2329.60;;;;;;5040278;28;20046;-78
2022/10/05 00:07:07;;;;;;;19.67;11.48;;;333.00;2329.60;;;;;;5039150;28;20025;-76
2022/10/05 00:09:33;;;;;;;17.08;11.00;;;332.90;2329.60;;;;;;5040922;28;20021;-79
2022/10/05 00:12:18;;;;;;;19.27;11.05;;;333.20;2329.60;;;;;;5040390;28;20033;-77
2022/10/05 00:14:46;;;;;;;25.25;10.88;;;332.90;2329.60;;;;;;5016290;28;20091;-79
2022/10/05 00:17:19;;;;;;;17.33;11.43;;;332.90;2329.60;;;;;;5023915;28;20026;-77
2022/10/05 00:19:50;;;;;;;15.88;10.02;;;332.90;2329.60;;;;;;5040171;28;20025;-76
2022/10/05 00:22:18;;;;;;;18.80;9.52;;;332.80;2329.60;;;;;;5022397;28;20026;-78
2022/10/05 00:24:45;;;;;;;19.50;10.60;;;332.80;2329.60;;;;;;5023843;28;20025;-76
2022/10/05 00:27:17;;;;;;;22.92;11.20;;;308.10;2304.00;;;;;;5041662;28;20104;-77
2022/10/05 00:29:43;;;;;;;17.98;10.50;;;332.80;2329.60;;;;;;5037864;28;20105;-76
2022/10/05 00:32:09;;;;;;;16.70;9.90;;;332.80;2329.60;;;;;;5041223;28;20025;-76
2022/10/05 00:34:36;;;;;;;19.70;10.50;;;332.80;2329.60;;;;;;5041759;28;20021;-75
2022/10/05 00:37:03;;;;;;;15.95;10.55;;;332.80;2329.60;;;;;;5019523;28;20042;-76
2022/10/05 00:39:29;;;;;;;17.35;10.05;;;332.80;2329.60;;;;;;5041082;28;20013;-77
2022/10/05 00:42:24;;;;;;;15.45;10.65;;;308.10;2304.00;;;;;;5024397;28;20513;-76
2022/10/05 00:45:14;;;;;;;15.30;10.05;;;308.10;2304.00;;;;;;5039942;28;20079;-77
2022/10/05 00:48:16;;;;;;;15.80;9.38;;;308.00;2304.00;;;;;;5022927;28;20090;-76
2022/10/05 00:51:09;;;;;;;15.88;9.57;;;307.90;2304.00;;;;;;5037472;28;20057;-76
2022/10/05 00:53:44;;;;;;;17.58;9.63;;;307.90;2304.00;;;;;;5040788;28;20501;-75
2022/10/05 00:56:34;;;;;;;15.30;9.88;;;307.80;2304.00;;;;;;5039785;28;20037;-76
2022/10/05 00:59:28;;;;;;;16.58;9.40;;;307.90;2304.00;;;;;;5044339;28;20020;-76
2022/10/05 01:02:22;;;;;;;19.20;9.50;;;307.90;2304.00;;;;;;5043962;28;20120;-75
2022/10/05 01:04:51;;;;;;;14.35;8.50;;;307.90;2304.00;;;;;;4954149;29;20053;-75
2022/10/05 01:07:32;;;;;;;18.17;9.68;;;307.90;2304.00;;;;;;4938205;29;20031;-75
2022/10/05 01:10:17;;;;;;;19.35;10.00;;;307.90;2304.00;;;;;;4953885;29;20035;-75
2022/10/05 01:13:13;;;;;;;16.00;9.93;;;307.90;2304.00;;;;;;4951714;29;20119;-75
2022/10/05 01:15:53;;;;;;;14.25;8.82;;;307.90;2304.00;;;;;;4954060;29;20151;-76
2022/10/05 01:18:37;;;;;;;15.45;9.35;;;307.90;2304.00;;;;;;4955530;29;20028;-77
2022/10/05 01:21:16;;;;;;;19.50;10.50;;;307.90;2304.00;;;;;;4955697;29;20041;-76
2022/10/05 01:24:12;;;;;;;17.90;9.95;;;307.90;2304.00;;;;;;4955322;29;20110;-77
2022/10/05 01:27:12;;;;;;;14.65;9.40;;;307.90;2304.00;;;;;;4939636;29;20071;-76
2022/10/05 01:30:06;;;;;;;18.42;10.15;;;307.90;2304.00;;;;;;4940522;29;20066;-76
2022/10/05 01:32:41;;;;;;;15.77;10.05;;;307.90;2304.00;;;;;;4955177;29;20031;-77
2022/10/05 01:35:32;;;;;;;18.30;9.82;;;307.90;2304.00;;;;;;4955040;29;20047;-76
2022/10/05 01:38:24;;;;;;;22.90;10.95;;;307.90;2304.00;;;;;;4954856;29;20043;-76
2022/10/05 01:41:11;;;;;;;16.33;10.13;;;308.00;2304.00;;;;;;4955538;28;20037;-77
2022/10/05 01:43:48;;;;;;;15.75;8.00;;;307.90;2304.00;;;;;;5017599;28;20029;-77
2022/10/05 01:46:32;;;;;;;16.63;10.43;;;307.90;2304.00;;;;;;5017503;28;20117;-76
2022/10/05 01:49:22;;;;;;;22.13;11.68;;;307.90;2304.00;;;;;;5017194;28;20112;-77
2022/10/05 01:52:09;;;;;;;19.38;9.98;;;308.00;2304.00;;;;;;5016813;28;20030;-77
2022/10/05 01:54:48;;;;;;;20.98;10.60;;;308.00;2304.00;;;;;;5017338;28;20057;-77
2022/10/05 01:57:23;;;;;;;16.75;10.77;;;308.00;2304.00;;;;;;5017338;28;20068;-77
2022/10/05 02:00:14;;;;;;;18.02;10.95;;;308.00;2304.00;;;;;;5034787;28;20417;-76
2022/10/05 02:02:48;;;;;;;14.82;9.77;;;308.00;2304.00;;;;;;5033798;28;20148;-76
2022/10/05 02:05:40;;;;;;;21.40;11.40;;;308.00;2304.00;;;;;;5034924;28;20022;-76
2022/10/05 02:08:13;;;;;;;21.33;10.25;;;308.10;2304.00;;;;;;5016924;28;20030;-76
2022/10/05 02:10:50;;;;;;;18.70;11.27;;;308.00;2304.00;;;;;;5034039;28;20021;-76
2022/10/05 02:13:24;;;;;;;20.73;11.07;;;308.00;2304.00;;;;;;5017017;28;20467;-76
2022/10/05 02:16:28;;;;;;;23.73;10.65;;;308.00;2304.00;;;;;;5016522;28;20124;-75
2022/10/05 02:19:16;;;;;;;19.27;10.90;;;308.00;2304.00;;;;;;5034382;28;20060;-76
2022/10/05 02:21:46;;;;;;;18.35;10.75;;;308.00;2304.00;;;;;;5034470;28;20040;-75
2022/10/05 02:24:27;;;;;;;14.52;9.63;;;307.90;2304.00;;;;;;5034780;28;20018;-76
2022/10/05 02:26:54;;;;;;;16.20;10.43;;;307.90;2304.00;;;;;;5034325;28;20017;-77
2022/10/05 02:29:23;;;;;;;17.73;10.40;;;307.90;2304.00;;;;;;5034263;28;20029;-76
2022/10/05 02:32:03;;;;;;;20.88;11.15;;;307.80;2304.00;;;;;;5034116;28;20471;-76
2022/10/05 02:34:42;;;;;;;21.95;10.35;;;307.80;2304.00;;;;;;5016442;28;20083;-76
2022/10/05 02:37:27;;;;;;;19.02;10.25;;;307.90;2304.00;;;;;;5034193;28;20035;-76
2022/10/05 02:39:58;;;;;;;21.63;9.63;;;307.80;2304.00;;;;;;5034152;28;20110;-75
2022/10/05 02:42:24;;;;;;;17.35;9.77;;;307.80;2304.00;;;;;;5034042;28;20599;-76
2022/10/05 02:45:00;;;;;;;14.70;8.80;;;307.80;2304.00;;;;;;5033972;28;20101;-76
2022/10/05 02:47:40;;;;;;;13.40;7.95;;;307.70;2304.00;;;;;;5016249;28;20108;-79
2022/10/05 02:50:35;;;;;;;16.58;10.60;;;307.70;2304.00;;;;;;5033969;28;20025;-76
2022/10/05 02:53:00;;;;;;;17.48;10.05;;;307.80;2304.00;;;;;;5033944;28;20025;-76
2022/10/05 02:55:49;;;;;;;19.38;9.13;;;307.70;2304.00;;;;;;5033584;28;20360;-75
2022/10/05 02:58:21;;;;;;;15.77;9.50;;;307.80;2304.00;;;;;;5015811;28;20033;-76
2022/10/05 03:00:55;;;;;;;16.42;9.85;;;307.80;2304.00;;;;;;5033571;28;20049;-76
2022/10/05 03:03:38;;;;;;;16.60;10.35;;;307.60;2304.00;;;;;;5033674;28;20050;-76
2022/10/05 03:06:11;;;;;;;18.20;10.63;;;307.60;2304.00;;;;;;5033733;28;20148;-75
2022/10/05 03:08:54;;;;;;;14.20;10.63;;;307.60;2304.00;;;;;;5033723;28;20033;-76
2022/10/05 03:11:40;;;;;;;17.42;10.07;;;307.60;2304.00;;;;;;5033735;28;20109;-76
2022/10/05 03:14:26;;;;;;;14.65;8.18;;;307.60;2304.00;;;;;;5033469;28;20029;-76
2022/10/05 03:17:14;;;;;;;18.05;9.48;;;307.50;2304.00;;;;;;5033056;28;20042;-76
2022/10/05 03:20:10;;;;;;;15.82;9.40;;;307.40;2304.00;;;;;;5033371;28;20425;-75
2022/10/05 03:22:55;;;;;;;24.38;10.40;;;307.40;2304.00;;;;;;5014729;28;20129;-77
2022/10/05 03:25:40;;;;;;;15.27;9.55;;;307.40;2304.00;;;;;;5033084;28;20056;-75
2022/10/05 03:28:35;;;;;;;19.65;9.80;;;307.40;2304.00;;;;;;5033111;28;20071;-76
2022/10/05 03:31:31;;;;;;;22.63;9.82;;;307.30;2304.00;;;;;;5032719;28;20057;-76
2022/10/05 03:34:27;;;;;;;16.00;8.88;;;307.30;2304.00;;;;;;5015457;28;20028;-76
2022/10/05 03:37:30;;;;;;;21.55;9.93;;;307.30;2304.00;;;;;;5014604;28;20053;-76
2022/10/05 03:40:11;;;;;;;17.92;9.65;;;307.20;2304.00;;;;;;5015279;28;20029;-76
2022/10/05 03:43:03;;;;;;;19.05;10.40;;;307.20;2304.00;;;;;;5015278;28;20029;-76
2022/10/05 03:45:40;;;;;;;14.68;9.35;;;282.50;2278.40;;;;;;5032736;28;20021;-76
2022/10/05 03:48:16;;;;;;;17.45;9.73;;;307.20;2304.00;;;;;;5032993;28;20423;-76
2022/10/05 03:51:21;;;;;;;11.93;7.70;;;307.20;2304.00;;;;;;5033098;28;20475;-77
2022/10/05 03:53:51;;;;;;;18.70;9.38;;;307.20;2304.00;;;;;;5032772;28;20107;-75
2022/10/05 03:56:34;;;;;;;15.88;10.95;;;307.20;2304.00;;;;;;5032491;28;20034;-76
2022/10/05 03:59:15;;;;;;;17.67;10.23;;;282.50;2278.40;;;;;;5015006;28;20017;-75
2022/10/05 04:01:57;;;;;;;17.67;10.70;;;282.50;2278.40;;;;;;5032482;28;20034;-75
2022/10/05 04:04:45;;;;;;;17.98;10.02;;;282.50;2278.40;;;;;;5014721;28;20057;-76
2022/10/05 04:07:32;;;;;;;14.77;9.93;;;282.50;2278.40;;;;;;5014644;28;20037;-76
2022/10/05 04:10:02;;;;;;;22.60;11.43;;;282.50;2278.40;;;;;;5015052;28;20033;-77
2022/10/05 04:12:34;;;;;;;17.23;9.48;;;282.50;2278.40;;;;;;5015235;28;20025;-77
2022/10/05 04:15:05;;;;;;;18.48;10.73;;;282.50;2278.40;;;;;;5032123;28;20037;-77
2022/10/05 04:17:43;;;;;;;17.75;10.18;;;282.50;2278.40;;;;;;5033090;28;20097;-78
2022/10/05 04:20:24;;;;;;;20.58;10.88;;;282.40;2278.40;;;;;;5032467;28;20399;-78
2022/10/05 04:23:03;;;;;;;16.60;10.88;;;282.30;2278.40;;;;;;5014394;28;20052;-77
2022/10/05 04:25:40;;;;;;;16.52;10.57;;;282.30;2278.40;;;;;;5032649;28;20071;-78
2022/10/05 04:28:29;;;;;;;19.73;10.30;;;282.30;2278.40;;;;;;5014534;28;20033;-76
2022/10/05 04:30:55;;;;;;;17.15;10.25;;;282.30;2278.40;;;;;;5031938;28;20077;-77
2022/10/05 04:33:21;;;;;;;19.42;10.23;;;282.20;2278.40;;;;;;5014337;28;20140;-78
2022/10/05 04:35:55;;;;;;;14.25;10.30;;;282.30;2278.40;;;;;;5032373;28;20506;-78
2022/10/05 04:38:42;;;;;;;22.70;10.85;;;282.20;2278.40;;;;;;5014619;28;20041;-77
2022/10/05 04:41:36;;;;;;;14.80;10.25;;;282.20;2278.40;;;;;;5014603;28;20395;-78
2022/10/05 04:44:04;;;;;;;17.13;11.25;;;282.30;2278.40;;;;;;5014327;28;20057;-78
2022/10/05 04:47:07;;;;;;;19.88;10.45;;;282.30;2278.40;;;;;;5031863;28;20544;-78
2022/10/05 04:50:02;;;;;;;20.20;11.20;;;282.10;2278.40;;;;;;5032261;28;20030;-78
2022/10/05 04:53:01;;;;;;;18.38;10.68;;;282.10;2278.40;;;;;;4952038;29;20027;-77
2022/10/05 04:55:46;;;;;;;19.95;11.02;;;282.20;2278.40;;;;;;4952149;29;20031;-76
2022/10/05 04:58:44;;;;;;;18.60;10.57;;;282.20;2278.40;;;;;;4951880;29;20036;-76
2022/10/05 05:01:28;;;;;;;17.52;11.32;;;282.20;2278.40;;;;;;4951474;29;20031;-76
2022/10/05 05:04:32;;;;;;;18.67;10.68;;;282.20;2278.40;;;;;;4935545;29;20043;-76
2022/10/05 05:07:33;;;;;;;19.02;12.10;;;282.10;2278.40;;;;;;4935787;29;20150;-79
2022/10/05 05:10:17;;;;;;;19.13;9.48;;;282.10;2278.40;;;;;;4936205;29;20040;-77
2022/10/05 05:13:08;;;;;;;15.55;10.63;;;282.20;2278.40;;;;;;4936030;29;20031;-78
2022/10/05 05:16:04;;;;;;;15.68;8.70;;;282.30;2278.40;;;;;;4951648;29;20493;-77
2022/10/05 05:18:47;;;;;;;14.10;9.25;;;282.30;2278.40;;;;;;4935680;29;20552;-78
2022/10/05 05:21:36;;;;;;;17.23;9.35;;;282.30;2278.40;;;;;;4951677;29;20071;-78
2022/10/05 05:24:09;;;;;;;18.95;9.88;;;282.40;2278.40;;;;;;4936016;29;20170;-78
2022/10/05 05:26:58;;;;;;;21.98;10.80;;;282.40;2278.40;;;;;;4935544;29;20082;-78
2022/10/05 05:29:49;;;;;;;20.58;9.98;;;282.50;2278.40;;;;;;4985153;28;20029;-78
2022/10/05 05:32:39;;;;;;;13.75;8.95;;;282.50;2278.40;;;;;;5013263;28;20061;-76
2022/10/05 05:35:16;;;;;;;15.32;8.88;;;282.50;2278.40;;;;;;5014085;28;20513;-77
2022/10/05 05:37:48;;;;;;;13.07;8.63;;;282.50;2278.40;;;;;;5014334;28;20036;-76
2022/10/05 05:40:27;;;;;;;21.73;9.00;;;307.20;2304.00;;;;;;5013799;28;20021;-77
2022/10/05 05:43:22;;;;;;;15.13;8.82;;;307.20;2304.00;;;;;;5013951;28;20057;-77
2022/10/05 05:46:21;;;;;;;19.10;8.15;;;307.30;2304.00;;;;;;5016085;28;20112;-77
2022/10/05 05:48:47;;;;;;;19.60;10.43;;;307.30;2304.00;;;;;;5017565;28;20026;-77
2022/10/05 05:51:22;;;;;;;19.50;10.07;;;307.30;2304.00;;;;;;5035076;28;20144;-78
2022/10/05 05:54:09;;;;;;;15.52;10.25;;;307.30;2304.00;;;;;;5017530;28;20105;-76
2022/10/05 05:56:38;;;;;;;;;;;307.30;2304.00;;;;;;5035394;28;20087;-76
2022/10/05 05:59:28;;;;;;;16.08;10.23;;;307.30;2304.00;;;;;;5034788;28;19905;-77
2022/10/05 06:02:05;;;;;;;16.60;10.70;;;307.30;2304.00;;;;;;5016763;28;20025;-75
2022/10/05 06:04:44;;;;;;;16.17;9.63;;;307.30;2304.00;;;;;;5034801;28;20034;-76
2022/10/05 06:07:20;;;;;;;18.75;9.98;;;307.40;2304.00;;;;;;5016926;28;20096;-76
2022/10/05 06:09:53;;;;;;;21.38;11.98;;;307.50;2304.00;;;;;;5017202;28;20033;-76
2022/10/05 06:12:30;;;;;;;21.63;9.80;;;307.60;2304.00;;;;;;5018055;28;20021;-77
2022/10/05 06:15:03;;;;;;;25.67;10.13;;;307.50;2304.00;;;;;;5034326;28;20033;-77
2022/10/05 06:17:35;;;;;;;28.00;12.13;;;307.60;2304.00;;;;;;5017113;28;20033;-80
2022/10/05 06:20:04;;;;;;;21.27;10.40;;;307.70;2304.00;;;;;;5016380;28;20034;-78
2022/10/05 06:22:39;;;;;;;19.90;10.32;;;307.80;2304.00;;;;;;5015812;28;20041;-78
2022/10/05 06:25:11;;;;;;;18.35;10.25;;;307.90;2304.00;;;;;;5034576;28;20030;-77
2022/10/05 06:27:57;;;;;;;18.15;10.65;;;307.90;2304.00;;;;;;5023463;28;20087;-76
2022/10/05 06:30:23;;;;;;;19.42;10.70;;;308.00;2304.00;;;;;;5030902;28;20033;-79
2022/10/05 06:32:49;;;;;;;21.05;11.30;;;308.10;2304.00;;;;;;5026516;28;20069;-79
2022/10/05 06:35:31;;;;;;;21.13;12.85;;;332.80;2329.60;;;;;;5011489;28;20053;-77
2022/10/05 06:38:18;;;;;;;21.85;11.95;;;308.10;2304.00;;;;;;5024695;28;20026;-76
2022/10/05 06:41:22;;;;;;;16.65;11.50;;;332.90;2329.60;;;;;;5024395;28;20364;-77
2022/10/05 06:44:06;;;;;;;20.95;12.23;;;333.00;2329.60;;;;;;4954073;28;20307;-77
2022/10/05 06:46:44;;;;;;;21.17;13.35;;;333.10;2329.60;;;;;;4972257;28;20099;-78
2022/10/05 06:49:29;;;;;;;21.30;13.63;;;333.20;2329.60;;;;;;4972803;28;20026;-77
2022/10/05 06:51:56;;;;;;;21.85;14.13;;;333.20;2329.60;;;;;;4972297;28;20033;-77
2022/10/05 06:55:03;;;;;;;22.67;14.05;;;333.30;2329.60;;;;;;4953402;28;20032;-78
2022/10/05 06:57:53;;;;;;;23.10;13.93;;;333.40;2329.60;;;;;;4968839;28;20035;-77
2022/10/05 07:00:23;;;;;;;21.90;12.55;;;333.50;2329.60;;;;;;4970164;28;20079;-77
2022/10/05 07:02:55;;;;;;;27.20;12.90;;;333.60;2329.60;;;;;;4956479;28;20073;-77
2022/10/05 07:06:03;;;;;;;21.08;12.60;;;333.70;2329.60;;;;;;4972686;28;20054;-78
2022/10/05 07:08:53;;;;;;;19.23;12.85;;;358.50;2329.60;;;;;;4915304;29;20040;-78
2022/10/05 07:11:55;;;;;;;18.90;11.32;;;358.50;2329.60;;;;;;4899367;29;20064;-76
2022/10/05 07:14:42;;;;;;;20.90;12.55;;;358.60;2329.60;;;;;;4915387;29;20033;-77
2022/10/05 07:17:38;;;;;;;20.63;13.35;;;358.70;2329.60;;;;;;4914817;29;20040;-75
2022/10/05 07:20:27;;;;;;;33.67;14.38;;;358.80;2329.60;;;;;;4908415;29;20032;-76
2022/10/05 07:22:59;;;;;;;25.98;15.23;;;358.80;2329.60;;;;;;4900220;29;20115;-76
2022/10/05 07:26:00;;;;;;;24.33;13.48;;;359.00;2329.60;;;;;;4915130;29;20044;-76
2022/10/05 07:28:58;;;;;;;29.50;15.55;;;359.00;2329.60;;;;;;4923006;29;20024;-78
2022/10/05 07:31:34;;;;;;;30.05;15.02;;;359.00;2329.60;;;;;;4933920;29;20095;-78
2022/10/05 07:34:23;;;;;;;20.77;13.95;;;359.00;2329.60;;;;;;4933529;29;20067;-79
2022/10/05 07:40:39;;;;;;;25.90;14.65;;;359.10;2329.60;;;;;;4934121;29;20101;-79
2022/10/05 07:43:32;;;;;;;22.05;13.50;;;359.20;2329.60;;;;;;4933644;29;20032;-79
2022/10/05 07:46:07;;;;;;;24.05;14.18;;;359.20;2329.60;;;;;;5002944;28;20030;-76
2022/10/05 07:48:34;;;;;;;22.05;15.00;;;359.30;2329.60;;;;;;5019035;28;20029;-77
2022/10/05 07:51:10;;;;;;;26.45;14.15;;;359.30;2329.60;;;;;;5032757;28;20037;-78
2022/10/05 07:53:47;;;;;;;25.85;14.32;;;359.30;2329.60;;;;;;5018994;28;20057;-77
2022/10/05 07:56:22;;;;;;;24.48;14.05;;;384.00;2329.60;;;;;;5024372;28;20046;-78
2022/10/05 07:58:57;;;;;;;19.75;13.30;;;384.00;2329.60;;;;;;5009045;28;20022;-78
2022/10/05 08:01:37;;;;;;;19.98;13.77;;;384.00;2329.60;;;;;;5003901;28;20029;-77
2022/10/05 08:04:09;;;;;;;42.30;13.70;;;384.10;2329.60;;;;;;5018130;28;20053;-78
2022/10/05 08:07:01;;;;;;;22.60;13.90;;;384.10;2329.60;;;;;;5024755;28;20067;-76
2022/10/05 08:09:54;;;;;;;27.02;13.95;;;384.10;2329.60;;;;;;5028399;28;20052;-77
2022/10/05 08:12:23;;;;;;;28.52;13.75;;;384.20;2329.60;;;;;;5004564;28;20045;-75
2022/10/05 08:15:13;;;;;;;21.25;13.32;;;384.30;2329.60;;;;;;5039334;28;20021;-76
2022/10/05 08:17:47;;;;;;;24.20;14.07;;;384.30;2329.60;;;;;;5034198;28;20029;-76
2022/10/05 08:20:24;;;;;;;19.15;10.77;;;384.30;2329.60;;;;;;5042733;28;20362;-76
2022/10/05 08:23:12;;;;;;;15.63;11.07;;;384.30;2329.60;;;;;;5017459;28;20371;-76
2022/10/05 08:25:44;;;;;;;22.23;12.05;;;384.40;2329.60;;;;;;5040132;28;20026;-79
2022/10/05 08:28:45;;;;;;;21.65;12.70;;;384.50;2329.60;;;;;;5034360;28;20063;-77
2022/10/05 08:31:26;;;;;;;20.05;13.52;;;384.60;2329.60;;;;;;4951680;29;20032;-77
2022/10/05 08:34:01;;;;;;;23.10;13.77;;;384.70;2329.60;;;;;;4951971;29;20130;-79
2022/10/05 08:36:43;;;;;;;24.10;12.88;;;384.70;2329.60;;;;;;4922744;29;20062;-79
2022/10/05 08:39:19;;;;;;;23.92;13.30;;;384.70;2329.60;;;;;;4936470;29;20028;-78
2022/10/05 08:42:13;;;;;;;20.95;12.40;;;384.90;2329.60;;;;;;4922202;29;20038;-77
2022/10/05 08:45:04;;;;;;;17.88;11.13;;;384.90;2329.60;;;;;;4941565;29;20122;-77
2022/10/05 08:47:48;;;;;;;16.70;9.95;;;409.60;2355.20;;;;;;4917176;29;20046;-77
2022/10/05 08:50:32;;;;;;;16.63;11.63;;;409.70;2355.20;;;;;;4935122;29;20046;-77
2022/10/05 08:53:28;;;;;;;20.70;11.65;;;409.80;2355.20;;;;;;4925885;29;20039;-79
2022/10/05 08:56:24;;;;;;;19.65;10.90;;;410.00;2355.20;;;;;;4951606;29;20062;-80
2022/10/05 08:59:08;;;;;;;17.17;11.93;;;410.10;2355.20;;;;;;4935688;29;20032;-79
2022/10/05 09:01:46;;;;;;;17.38;10.70;;;410.20;2355.20;;;;;;4935731;29;20047;-76
2022/10/05 09:04:21;;;;;;;15.07;10.52;;;410.40;2355.20;;;;;;4951388;29;20413;-77
2022/10/05 09:07:05;;;;;;;14.38;8.85;;;410.50;2355.20;;;;;;4967973;28;20073;-77
2022/10/05 09:09:37;;;;;;;14.75;7.90;;;435.30;2355.20;;;;;;4999785;28;20472;-79
2022/10/05 09:12:47;;;;;;;13.45;8.98;;;435.30;2355.20;;;;;;4996708;28;20042;-77
2022/10/05 09:15:54;;;;;;;18.15;9.30;;;435.50;2355.20;;;;;;4991320;28;20469;-78
2022/10/05 09:18:53;;;;;;;14.48;9.60;;;435.50;2355.20;;;;;;4934219;29;20114;-77
2022/10/05 09:21:43;;;;;;;17.13;9.00;;;435.80;2355.20;;;;;;4937763;29;20028;-76
2022/10/05 09:24:16;;;;;;;15.00;8.88;;;436.00;2355.20;;;;;;4936027;29;20031;-78
2022/10/05 09:27:00;;;;;;;13.68;8.25;;;436.10;2355.20;;;;;;4936386;29;20371;-79
2022/10/05 09:29:53;;;;;;;12.82;7.53;;;436.10;2355.20;;;;;;4936582;29;20032;-78
2022/10/05 09:32:50;;;;;;;12.45;7.70;;;460.90;2380.80;;;;;;4935685;29;20057;-79
2022/10/05 09:36:04;;;;;;;12.27;6.45;;;461.00;2380.80;;;;;;4936028;29;20039;-76
2022/10/05 09:39:21;;;;;;;12.52;7.15;;;461.20;2380.80;;;;;;4935480;28;20035;-80
2022/10/05 09:42:08;;;;;;;10.65;7.05;;;461.30;2380.80;;;;;;4898029;29;20095;-77
2022/10/05 09:45:10;;;;;;;12.15;6.65;;;461.40;2380.80;;;;;;4897205;29;20068;-78
2022/10/05 09:47:58;;;;;;;11.57;7.32;;;461.70;2380.80;;;;;;4841751;29;20034;-80
2022/10/05 09:50:48;;;;;;;10.93;6.45;;;461.70;2380.80;;;;;;4842225;29;20038;-80
2022/10/05 09:53:26;;;;;;;11.40;6.28;;;486.50;2380.80;;;;;;4842439;29;20022;-79
2022/10/05 09:56:14;;;;;;;10.63;6.57;;;486.50;2380.80;;;;;;4918832;29;20148;-78
2022/10/05 09:58:58;;;;;;;11.20;5.80;;;486.80;2380.80;;;;;;4935890;29;20130;-81
2022/10/05 10:01:44;;;;;;;10.32;6.50;;;486.80;2380.80;;;;;;4930759;29;20140;-77
2022/10/05 10:04:37;;;;;;;9.52;6.53;;;486.80;2380.80;;;;;;4933779;29;20071;-77
2022/10/05 10:07:25;;;;;;;11.38;6.32;;;486.80;2380.80;;;;;;4919599;29;20067;-78
2022/10/05 10:10:15;;;;;;;12.35;5.15;;;486.90;2380.80;;;;;;4919723;29;20036;-79
2022/10/05 10:12:46;;;;;;;11.60;5.88;;;486.90;2380.80;;;;;;4919603;29;20118;-77
2022/10/05 10:15:44;;;;;;;13.55;6.32;;;487.10;2380.80;;;;;;4919377;29;20132;-76
2022/10/05 10:18:22;;;;;;;9.50;5.68;;;487.10;2380.80;;;;;;5025414;28;20441;-77
2022/10/05 10:21:07;;;;;;;10.02;5.30;;;487.30;2380.80;;;;;;5030170;28;20021;-77
2022/10/05 10:23:48;;;;;;;8.02;4.78;;;512.00;2380.80;;;;;;5028454;28;20017;-77
2022/10/05 10:26:38;;;;;;;10.88;4.55;;;512.10;2278.40;;;;;;5030660;28;20021;-77
2022/10/05 10:29:25;;;;;;;9.70;6.40;;;512.40;2304.00;;;;;;5019439;28;20026;-77
2022/10/05 10:31:53;;;;;;;;;;;512.60;2227.20;;;;;;5024419;28;20028;-77
2022/10/05 10:34:22;;;;;;;8.50;5.68;;;512.70;2278.40;;;;;;5017984;28;19932;-77
2022/10/05 10:37:15;;;;;;;16.75;6.82;;;512.80;2150.40;;;;;;5002625;28;20085;-77
2022/10/05 10:40:12;;;;;;;7.88;5.47;;;512.90;2278.40;;;;;;5016179;28;20026;-76
2022/10/05 10:42:43;;;;;;;11.32;5.50;;;512.80;2201.60;;;;;;5021249;28;20029;-78
2022/10/05 10:45:18;;;;;;;10.68;6.05;;;;;;;;;;5008798;28;20041;-78
2022/10/05 10:48:22;;;;;;;8.02;5.38;;;538.10;2048.00;;;;;;5016762;28;20383;-78
2022/10/05 10:51:00;;;;;;;8.90;5.45;;;;;;;;;;5019767;28;20021;-78
2022/10/05 10:53:40;;;;;;;14.50;5.32;;;;;;;;;;5017680;28;20077;-76
2022/10/05 10:56:23;;;;;;;10.40;4.97;;;;;;;;;;5019403;28;20131;-78
2022/10/05 10:59:18;;;;;;;10.63;4.88;;;;;;;;;;5035885;28;20175;-76
2022/10/05 11:02:21;;;;;;;15.93;5.80;;;563.20;2048.00;;;;;;5053490;28;20029;-78
2022/10/05 11:05:07;;;;;;;8.82;4.85;;;563.20;2355.20;;;;;;5035400;28;20040;-76
2022/10/05 11:07:38;;;;;;;10.95;5.78;;;563.60;1971.20;;;;;;5040126;28;20025;-77
2022/10/05 11:10:25;;;;;;;11.10;4.97;;;563.60;1945.60;;;;;;5015533;28;20130;-77
2022/10/05 11:13:24;;;;;;;24.90;7.88;;;563.20;1971.20;;;;;;5043842;28;20117;-85
2022/10/05 11:16:41;;;;;;;10.90;5.45;;;563.30;2048.00;;;;;;5035469;28;20427;-77
2022/10/05 11:19:37;;;;;;;8.43;4.57;;;563.40;1894.40;;;;;;4953186;29;20066;-84
2022/10/05 11:22:39;;;;;;;10.25;4.50;;;563.70;1920.00;;;;;;4931510;29;20604;-82
2022/10/05 11:25:50;;;;;;;5.78;3.55;;;563.90;1920.00;;;;;;4936228;29;20393;-83
2022/10/05 11:28:39;;;;;;;8.23;4.05;;;564.10;1766.40;;;;;;4922778;29;20027;-76
2022/10/05 11:31:41;;;;;;;10.07;3.92;;;588.80;1740.80;;;;;;4937215;28;20200;-80
2022/10/05 11:34:41;;;;;;;9.30;2.95;;;564.00;1715.20;;;;;;4937270;29;20039;-78
2022/10/05 11:37:47;;;;;;;6.28;3.60;;;564.10;1689.60;;;;;;4953006;29;20035;-76
2022/10/05 11:40:32;;;;;;;4.90;2.88;;;588.80;1612.80;;;;;;4950758;29;20082;-79
2022/10/05 11:43:06;;;;;;;8.95;3.03;;;564.10;1587.20;;;;;;4943446;29;20046;-76
2022/10/05 11:45:40;;;;;;;7.35;3.15;;;564.10;1612.80;;;;;;4953011;29;20040;-85
2022/10/05 11:48:30;;;;;;;4.63;2.70;;;563.70;1612.80;;;;;;4953362;29;20477;-84
2022/10/05 11:51:16;;;;;;;5.35;2.65;;;564.10;1536.00;;;;;;4952663;29;20501;-77
2022/10/05 11:54:02;;;;;;;7.22;2.55;;;588.80;1587.20;;;;;;4934614;28;20043;-77
2022/10/05 11:56:34;;;;;;;5.63;2.83;;;563.80;1612.80;;;;;;5038574;28;20093;-80
2022/10/05 11:59:29;;;;;;;4.47;2.55;;;564.00;1612.80;;;;;;5053004;28;20075;-79
2022/10/05 12:02:19;;;;;;;6.70;3.03;;;564.10;1587.20;;;;;;5029621;28;20033;-80
2022/10/05 12:04:51;;;;;;;7.47;3.25;;;588.90;1587.20;;;;;;5033237;28;20064;-85
2022/10/05 12:07:28;;;;;;;5.63;3.05;;;588.80;1587.20;;;;;;5039919;28;20021;-79
2022/10/05 12:10:19;;;;;;;9.60;3.22;;;564.10;1664.00;;;;;;5035011;28;20017;-80
2022/10/05 12:13:04;;;;;;;5.13;2.95;;;589.00;1612.80;;;;;;5026963;28;20026;-80
2022/10/05 12:16:01;;;;;;;9.10;3.10;;;589.40;1561.60;;;;;;5018151;28;20030;-80
2022/10/05 12:18:30;;;;;;;9.52;3.45;;;589.60;1510.40;;;;;;5019430;28;20537;-78
2022/10/05 12:21:04;;;;;;;6.78;3.20;;;589.30;1587.20;;;;;;5007354;28;20117;-80
2022/10/05 12:23:51;;;;;;;8.45;3.08;;;589.50;1536.00;;;;;;5016813;28;20037;-80
2022/10/05 12:26:32;;;;;;;5.32;2.78;;;589.60;1510.40;;;;;;5017331;28;20014;-80
2022/10/05 12:29:06;;;;;;;6.03;3.15;;;589.70;1510.40;;;;;;5004481;28;20030;-80
2022/10/05 12:31:58;;;;;;;6.68;3.22;;;614.50;1459.20;;;;;;5015986;28;20026;-81
2022/10/05 12:34:28;;;;;;;7.90;2.90;;;614.50;1433.60;;;;;;5052942;28;20120;-80
2022/10/05 12:36:58;;;;;;;7.47;3.70;;;614.50;1433.60;;;;;;5015293;28;20483;-82
2022/10/05 12:39:37;;;;;;;7.15;3.50;;;614.50;1484.80;;;;;;5013287;28;20084;-79
2022/10/05 12:42:21;;;;;;;10.27;4.00;;;614.60;1484.80;;;;;;5014305;28;20040;-80
2022/10/05 12:45:09;;;;;;;10.05;4.25;;;614.50;1510.40;;;;;;5013728;28;20022;-81
2022/10/05 12:47:59;;;;;;;4.88;3.30;;;614.40;1536.00;;;;;;5008816;28;20045;-80
2022/10/05 12:50:45;;;;;;;9.55;3.60;;;614.40;1510.40;;;;;;5014308;28;20037;-80
2022/10/05 12:53:32;;;;;;;9.02;3.72;;;589.70;1484.80;;;;;;5029231;28;20479;-81
2022/10/05 12:56:08;;;;;;;6.60;4.00;;;589.70;1510.40;;;;;;5036249;28;20034;-80
2022/10/05 12:58:51;;;;;;;9.25;3.63;;;589.70;1510.40;;;;;;5018497;28;20029;-80
2022/10/05 13:01:25;;;;;;;5.55;3.47;;;589.70;1510.40;;;;;;5015541;28;20037;-80
2022/10/05 13:03:54;;;;;;;7.65;3.67;;;589.70;1536.00;;;;;;5018505;28;20411;-79
2022/10/05 13:06:57;;;;;;;8.27;3.90;;;589.50;1561.60;;;;;;5018027;28;20037;-81
2022/10/05 13:09:36;;;;;;;3.95;3.05;;;589.30;1587.20;;;;;;5018468;28;20025;-80
2022/10/05 13:12:34;;;;;;;5.72;3.35;;;589.30;1536.00;;;;;;5035963;28;20021;-81
2022/10/05 13:15:21;;;;;;;7.15;3.38;;;589.40;1536.00;;;;;;4939630;29;20066;-80
2022/10/05 13:18:10;;;;;;;5.47;2.80;;;588.80;1612.80;;;;;;4940207;29;20038;-81
2022/10/05 13:21:01;;;;;;;5.15;2.72;;;588.80;1536.00;;;;;;4955523;29;20066;-82
2022/10/05 13:23:51;;;;;;;7.35;3.03;;;564.10;1536.00;;;;;;4898437;29;20085;-81
2022/10/05 13:26:20;;;;;;;5.45;2.60;;;564.10;1510.40;;;;;;4883186;29;20064;-82
2022/10/05 13:29:23;;;;;;;6.72;2.60;;;564.10;1536.00;;;;;;4882798;29;20044;-81
2022/10/05 13:32:05;;;;;;;4.43;2.60;;;563.80;1638.40;;;;;;4898637;29;20044;-82
2022/10/05 13:34:40;;;;;;;6.30;2.75;;;563.50;1664.00;;;;;;4882887;29;20044;-82